Time;durP1;ratioP1;P1;durP2;ratioP2;P2;SDS_P1;SDS_P2;PMS_P1;PMS_P2;Temp;Humidity;BMP_temperature;BMP_pressure;BME280_temperature;BME280_humidity;BME280_pressure;Samples;Min_cycle;Max_cycle;Signal;HPM_P1;HPM_P2
2024/01/15 00:00:27;;;;;;;9.40;5.97;;;;;;;;;;10371447;28;20207;-68
2024/01/15 00:05:28;;;;;;;12.57;5.83;;;;;;;;;;10373887;28;20553;-68
2024/01/15 00:10:28;;;;;;;10.97;7.07;;;;;;;;;;10373956;28;20224;-68
2024/01/15 00:15:28;;;;;;;13.33;7.13;;;;;;;;;;10373648;28;20220;-68
2024/01/15 00:20:28;;;;;;;13.33;6.57;;;;;;;;;;10370990;28;20998;-68
2024/01/15 00:25:28;;;;;;;14.37;7.10;;;;;;;;;;10371986;28;20481;-68
2024/01/15 00:30:29;;;;;;;15.07;8.47;;;;;;;;;;10373229;28;20224;-68
2024/01/15 00:35:29;;;;;;;16.33;8.70;;;;;;;;;;10372969;28;20236;-68
2024/01/15 00:40:29;;;;;;;17.13;7.00;;;;;;;;;;10369983;28;20197;-67
2024/01/15 00:45:29;;;;;;;14.23;7.10;;;;;;;;;;10372550;28;20241;-67
2024/01/15 00:50:29;;;;;;;14.40;7.03;;;;;;;;;;10372068;28;20221;-66
2024/01/15 00:55:30;;;;;;;16.40;7.87;;;;;;;;;;10372136;28;20212;-66
2024/01/15 01:00:30;;;;;;;15.43;7.83;;;;;;;;;;10369448;28;20248;-66
2024/01/15 01:05:30;;;;;;;14.80;8.37;;;;;;;;;;10371281;28;20237;-68
2024/01/15 01:10:30;;;;;;;15.93;7.70;;;;;;;;;;10371616;28;20742;-68
2024/01/15 01:15:30;;;;;;;11.27;6.67;;;;;;;;;;10368745;28;20213;-69
2024/01/15 01:20:30;;;;;;;13.67;7.47;;;;;;;;;;10371030;28;20217;-66
2024/01/15 01:25:31;;;;;;;15.23;7.97;;;;;;;;;;10371239;28;20684;-68
2024/01/15 01:30:31;;;;;;;17.30;8.17;;;;;;;;;;10370409;28;20777;-68
2024/01/15 01:35:31;;;;;;;19.43;8.67;;;;;;;;;;10367980;28;20213;-67
2024/01/15 01:40:31;;;;;;;17.23;9.00;;;;;;;;;;10370666;28;20901;-68
2024/01/15 01:45:31;;;;;;;16.03;6.90;;;;;;;;;;10370263;28;20700;-66
2024/01/15 01:50:32;;;;;;;17.03;7.63;;;;;;;;;;10370054;28;20227;-68
2024/01/15 01:55:33;;;;;;;21.23;10.63;;;;;;;;;;10367250;28;20210;-67
2024/01/15 02:00:33;;;;;;;16.03;10.20;;;;;;;;;;10368009;28;20479;-67
2024/01/15 02:05:35;;;;;;;16.53;9.83;;;;;;;;;;10368587;28;20331;-67
2024/01/15 02:10:35;;;;;;;20.67;9.67;;;;;;;;;;10368951;28;20233;-67
2024/01/15 02:15:35;;;;;;;18.50;10.13;;;;;;;;;;10366268;28;20232;-68
2024/01/15 02:20:36;;;;;;;18.80;10.20;;;;;;;;;;10368531;28;20189;-67
2024/01/15 02:25:37;;;;;;;17.37;9.23;;;;;;;;;;10368322;28;20267;-68
2024/01/15 02:30:41;;;;;;;16.30;8.83;;;;;;;;;;10367835;28;20221;-68
2024/01/15 02:35:41;;;;;;;17.17;8.40;;;;;;;;;;10366052;28;20240;-67
2024/01/15 02:40:43;;;;;;;15.47;7.87;;;;;;;;;;10368346;28;20213;-66
2024/01/15 02:45:43;;;;;;;17.53;10.57;;;;;;;;;;10367836;28;20559;-66
2024/01/15 02:50:43;;;;;;;16.57;9.70;;;;;;;;;;10365250;28;20601;-66
2024/01/15 02:55:43;;;;;;;17.70;8.50;;;;;;;;;;10367536;28;20217;-67
2024/01/15 03:00:43;;;;;;;18.63;9.20;;;;;;;;;;10368100;28;20197;-65
2024/01/15 03:05:44;;;;;;;21.60;9.97;;;;;;;;;;10367465;28;20229;-68
2024/01/15 03:10:44;;;;;;;17.17;9.50;;;;;;;;;;10365203;28;20586;-68
2024/01/15 03:15:44;;;;;;;21.30;10.83;;;;;;;;;;10367467;28;20201;-66
2024/01/15 03:20:44;;;;;;;19.27;11.73;;;;;;;;;;10364773;28;20185;-65
2024/01/15 03:25:44;;;;;;;17.90;12.03;;;;;;;;;;10367315;28;20586;-65
2024/01/15 03:30:44;;;;;;;24.60;10.57;;;;;;;;;;10364617;28;20233;-65
2024/01/15 03:35:45;;;;;;;22.43;10.77;;;;;;;;;;10367342;28;20700;-67
2024/01/15 03:40:45;;;;;;;19.40;10.73;;;;;;;;;;10367349;28;20239;-66
2024/01/15 03:45:45;;;;;;;24.20;10.60;;;;;;;;;;10367154;28;20228;-68
2024/01/15 03:50:45;;;;;;;18.87;9.07;;;;;;;;;;10364171;28;20217;-66
2024/01/15 03:55:46;;;;;;;16.53;8.60;;;;;;;;;;10367027;28;20205;-67
2024/01/15 04:00:46;;;;;;;18.07;9.10;;;;;;;;;;10372263;28;20446;-66
2024/01/15 04:05:46;;;;;;;19.30;9.67;;;;;;;;;;10373715;28;20597;-66
2024/01/15 04:10:46;;;;;;;20.08;7.90;;;;;;;;;;10371411;28;20221;-66
2024/01/15 04:15:46;;;;;;;20.93;10.73;;;;;;;;;;10373762;28;20216;-65
2024/01/15 04:20:47;;;;;;;18.03;9.97;;;;;;;;;;10373762;28;20644;-66
2024/01/15 04:25:47;;;;;;;19.40;8.97;;;;;;;;;;10370665;28;20219;-66
2024/01/15 04:30:47;;;;;;;19.67;9.57;;;;;;;;;;10373441;28;20686;-68
2024/01/15 04:35:47;;;;;;;13.50;6.67;;;;;;;;;;10372672;28;20649;-66
2024/01/15 04:40:47;;;;;;;16.40;7.00;;;;;;;;;;10373211;28;20629;-67
2024/01/15 04:45:47;;;;;;;22.37;11.33;;;;;;;;;;10369665;28;20229;-67
2024/01/15 04:50:48;;;;;;;18.33;8.37;;;;;;;;;;10372055;28;20217;-68
2024/01/15 04:55:48;;;;;;;20.40;9.82;;;;;;;;;;10372366;28;20213;-68
2024/01/15 05:00:48;;;;;;;21.37;12.40;;;;;;;;;;10371586;28;20706;-68
2024/01/15 05:05:48;;;;;;;20.80;9.77;;;;;;;;;;10368139;28;20658;-66
2024/01/15 05:10:48;;;;;;;17.43;8.23;;;;;;;;;;10370821;28;20618;-68
2024/01/15 05:15:49;;;;;;;21.87;11.67;;;;;;;;;;10371522;28;20209;-66
2024/01/15 05:20:49;;;;;;;20.27;8.23;;;;;;;;;;10371307;28;20974;-66
2024/01/15 05:25:49;;;;;;;24.73;10.17;;;;;;;;;;10367511;28;20836;-66
2024/01/15 05:30:50;;;;;;;23.83;10.83;;;;;;;;;;10371009;28;20213;-68
2024/01/15 05:35:50;;;;;;;24.70;10.10;;;;;;;;;;10370614;28;20209;-66
2024/01/15 05:40:50;;;;;;;22.00;9.87;;;;;;;;;;10368522;28;20185;-66
2024/01/15 05:45:51;;;;;;;19.57;10.83;;;;;;;;;;10368493;28;20213;-65
2024/01/15 05:50:51;;;;;;;21.13;10.43;;;;;;;;;;10370014;28;20251;-66
2024/01/15 05:55:51;;;;;;;20.17;10.70;;;;;;;;;;10369818;28;20594;-65
2024/01/15 06:00:51;;;;;;;21.50;12.27;;;;;;;;;;10366212;28;20186;-66
2024/01/15 06:05:51;;;;;;;19.77;9.47;;;;;;;;;;10369541;28;20244;-66
2024/01/15 06:10:51;;;;;;;20.43;11.60;;;;;;;;;;10369628;28;20213;-66
2024/01/15 06:15:52;;;;;;;22.00;9.50;;;;;;;;;;10368928;28;20792;-68
2024/01/15 06:20:52;;;;;;;23.90;10.20;;;;;;;;;;10364765;28;20197;-68
2024/01/15 06:25:52;;;;;;;19.83;9.63;;;;;;;;;;10368973;28;20292;-68
2024/01/15 06:30:52;;;;;;;19.67;10.73;;;;;;;;;;10368513;28;20221;-66
2024/01/15 06:35:52;;;;;;;16.77;8.10;;;;;;;;;;10369007;28;20296;-67
2024/01/15 06:40:52;;;;;;;18.07;7.00;;;;;;;;;;10365066;28;20196;-68
2024/01/15 06:45:53;;;;;;;18.03;10.43;;;;;;;;;;10368623;28;20319;-68
2024/01/15 06:50:53;;;;;;;15.60;8.03;;;;;;;;;;10367997;28;20491;-66
2024/01/15 06:55:53;;;;;;;8.43;4.47;;;;;;;;;;10367992;28;20223;-68
2024/01/15 07:00:53;;;;;;;17.23;9.67;;;;;;;;;;10364322;28;20201;-66
2024/01/15 07:05:53;;;;;;;15.60;8.23;;;;;;;;;;10367465;28;20569;-67
2024/01/15 07:10:53;;;;;;;16.47;8.00;;;;;;;;;;10367661;28;20479;-66
2024/01/15 07:15:54;;;;;;;18.30;8.83;;;;;;;;;;10365021;28;20625;-66
2024/01/15 07:20:54;;;;;;;10.77;5.67;;;;;;;;;;10366468;28;20228;-66
2024/01/15 07:25:54;;;;;;;18.00;8.67;;;;;;;;;;10367311;28;20223;-66
2024/01/15 07:30:54;;;;;;;14.50;8.13;;;;;;;;;;10367293;28;20236;-66
2024/01/15 07:35:54;;;;;;;15.27;8.57;;;;;;;;;;10369654;28;20228;-66
2024/01/15 07:40:55;;;;;;;15.40;9.00;;;;;;;;;;10375069;28;20200;-66
2024/01/15 07:45:55;;;;;;;13.60;7.77;;;;;;;;;;10374996;28;20354;-67
2024/01/15 07:50:55;;;;;;;15.23;7.90;;;;;;;;;;10374558;28;20220;-67
2024/01/15 07:55:55;;;;;;;13.97;8.27;;;;;;;;;;10370660;28;20209;-67
2024/01/15 08:00:55;;;;;;;15.27;7.73;;;;;;;;;;10374211;28;20197;-67
2024/01/15 08:05:57;;;;;;;13.27;8.23;;;;;;;;;;10373718;28;20675;-67
2024/01/15 08:10:57;;;;;;;14.30;6.70;;;;;;;;;;10374016;28;20217;-67
2024/01/15 08:15:58;;;;;;;10.67;6.23;;;;;;;;;;10370002;28;20556;-67
2024/01/15 08:20:58;;;;;;;11.47;5.80;;;;;;;;;;10373204;28;20283;-66
2024/01/15 08:25:58;;;;;;;13.47;6.57;;;;;;;;;;10373211;28;20213;-66
2024/01/15 08:30:58;;;;;;;11.43;6.50;;;;;;;;;;10372895;28;20213;-67
2024/01/15 08:35:58;;;;;;;14.47;7.80;;;;;;;;;;10369000;28;20296;-67
2024/01/15 08:41:00;;;;;;;16.20;6.77;;;;;;;;;;10372857;28;20243;-66
2024/01/15 08:46:00;;;;;;;13.50;7.27;;;;;;;;;;10370768;28;20627;-67
2024/01/15 08:51:00;;;;;;;15.30;7.83;;;;;;;;;;10368911;28;20225;-66
2024/01/15 08:56:01;;;;;;;13.60;7.00;;;;;;;;;;10371160;28;20296;-66
2024/01/15 09:01:01;;;;;;;12.23;6.70;;;;;;;;;;10371957;28;20192;-66
2024/01/15 09:06:02;;;;;;;13.57;5.67;;;;;;;;;;10371391;28;20587;-67
2024/01/15 09:11:03;;;;;;;10.00;5.70;;;;;;;;;;10367633;28;20582;-67
2024/01/15 09:16:03;;;;;;;9.17;5.67;;;;;;;;;;10371530;28;20205;-67
2024/01/15 09:21:05;;;;;;;9.87;5.27;;;;;;;;;;10370627;28;20589;-67
2024/01/15 09:26:07;;;;;;;10.57;6.53;;;;;;;;;;10371128;28;20237;-66
2024/01/15 09:31:07;;;;;;;11.97;6.17;;;;;;;;;;10363347;28;20263;-66
2024/01/15 09:36:08;;;;;;;13.37;6.00;;;;;;;;;;10370144;28;20206;-66
2024/01/15 09:41:08;;;;;;;8.57;4.33;;;;;;;;;;10370482;28;20475;-67
2024/01/15 09:46:08;;;;;;;9.73;5.20;;;;;;;;;;10369675;28;20209;-66
2024/01/15 09:51:08;;;;;;;12.70;5.50;;;;;;;;;;10366244;28;20550;-66
2024/01/15 09:56:10;;;;;;;8.90;5.17;;;;;;;;;;10369326;28;20216;-67
2024/01/15 10:01:11;;;;;;;12.23;5.13;;;;;;;;;;10369443;28;20248;-67
2024/01/15 10:06:14;;;;;;;9.57;4.30;;;;;;;;;;10369049;28;20245;-66
2024/01/15 10:11:16;;;;;;;11.03;5.17;;;;;;;;;;10365122;28;20213;-67
2024/01/15 10:16:16;;;;;;;9.77;4.60;;;;;;;;;;10369153;28;20263;-66
2024/01/15 10:21:16;;;;;;;9.87;4.43;;;;;;;;;;10368948;28;20223;-66
2024/01/15 10:26:16;;;;;;;9.93;3.67;;;;;;;;;;10365653;28;20220;-66
2024/01/15 10:31:17;;;;;;;9.90;5.57;;;;;;;;;;10368077;28;20220;-66
2024/01/15 10:36:17;;;;;;;11.03;5.87;;;;;;;;;;10367913;28;20303;-66
2024/01/15 10:41:17;;;;;;;6.63;3.37;;;;;;;;;;10368333;28;20979;-66
2024/01/15 10:46:17;;;;;;;8.90;4.73;;;;;;;;;;10364237;28;20293;-66
2024/01/15 10:51:18;;;;;;;10.87;4.43;;;;;;;;;;10367768;28;20217;-66
2024/01/15 10:56:18;;;;;;;8.63;4.37;;;;;;;;;;10367577;28;20696;-66
2024/01/15 11:01:19;;;;;;;11.73;4.80;;;;;;;;;;10367691;28;20945;-66
2024/01/15 11:06:19;;;;;;;6.43;4.30;;;;;;;;;;10363762;28;20283;-67
2024/01/15 11:11:20;;;;;;;10.20;4.80;;;;;;;;;;10380005;28;20312;-66
2024/01/15 11:16:21;;;;;;;7.50;4.60;;;;;;;;;;10380773;28;20209;-65
2024/01/15 11:21:21;;;;;;;11.03;4.97;;;;;;;;;;10380968;28;20203;-65
2024/01/15 11:26:40;;;;;;;9.33;4.40;;;;;;;;;;10377229;28;20703;-65
2024/01/15 11:31:40;;;;;;;9.80;3.80;;;;;;;;;;10377709;28;20707;-65
2024/01/15 11:36:53;;;;;;;10.03;5.23;;;;;;;;;;10380367;28;20239;-65
2024/01/15 11:41:56;;;;;;;13.70;5.70;;;;;;;;;;10378789;28;20193;-66
2024/01/15 11:47:03;;;;;;;9.67;5.47;;;;;;;;;;10379503;28;20268;-65
2024/01/15 11:52:04;;;;;;;10.83;5.80;;;;;;;;;;10380562;28;20217;-67
2024/01/15 11:57:09;;;;;;;8.10;4.40;;;;;;;;;;10379806;28;20212;-67
2024/01/15 12:02:11;;;;;;;9.53;3.90;;;;;;;;;;10373955;28;20185;-67
2024/01/15 12:07:11;;;;;;;11.07;4.50;;;;;;;;;;10380145;28;20766;-67
2024/01/15 12:12:16;;;;;;;8.27;3.80;;;;;;;;;;10379780;28;20216;-65
2024/01/15 12:17:17;;;;;;;9.33;4.97;;;;;;;;;;10380169;28;20452;-65
2024/01/15 12:22:17;;;;;;;9.90;5.70;;;;;;;;;;10370627;28;20197;-65
2024/01/15 12:27:17;;;;;;;11.53;5.47;;;;;;;;;;10373445;28;20205;-65
2024/01/15 12:32:18;;;;;;;6.67;3.37;;;;;;;;;;10373085;28;20483;-65
2024/01/15 12:37:19;;;;;;;8.10;4.60;;;;;;;;;;10372783;28;20518;-66
2024/01/15 12:42:20;;;;;;;8.40;4.07;;;;;;;;;;10369439;28;20197;-65
2024/01/15 12:47:21;;;;;;;9.63;4.63;;;;;;;;;;10372475;28;20212;-66
2024/01/15 12:52:21;;;;;;;13.33;5.83;;;;;;;;;;10372802;28;20275;-66
2024/01/15 12:57:21;;;;;;;17.27;6.80;;;;;;;;;;10372438;28;20491;-66
2024/01/15 13:02:22;;;;;;;12.30;6.23;;;;;;;;;;10368936;28;20272;-66
2024/01/15 13:07:22;;;;;;;12.80;6.20;;;;;;;;;;10370394;28;20688;-66
2024/01/15 13:12:22;;;;;;;15.77;7.33;;;;;;;;;;10371934;28;20254;-66
2024/01/15 13:17:23;;;;;;;13.33;7.53;;;;;;;;;;10367693;28;20271;-68
2024/01/15 13:22:24;;;;;;;14.50;7.30;;;;;;;;;;10371215;28;20463;-68
2024/01/15 13:27:24;;;;;;;12.97;6.37;;;;;;;;;;10371318;28;20225;-66
2024/01/15 13:32:26;;;;;;;13.90;7.53;;;;;;;;;;10371217;28;20894;-66
2024/01/15 13:37:27;;;;;;;10.67;6.47;;;;;;;;;;10372832;28;20264;-66
2024/01/15 13:42:27;;;;;;;9.70;5.70;;;;;;;;;;10372429;28;20284;-66
2024/01/15 13:47:27;;;;;;;12.20;5.37;;;;;;;;;;10370334;28;20305;-65
2024/01/15 13:52:27;;;;;;;11.37;5.17;;;;;;;;;;10368583;28;20221;-65
2024/01/15 13:57:28;;;;;;;11.37;5.80;;;;;;;;;;10369402;28;20225;-66
2024/01/15 14:02:28;;;;;;;12.07;5.93;;;;;;;;;;10369915;28;20248;-66
2024/01/15 14:07:28;;;;;;;12.20;5.87;;;;;;;;;;10369009;28;20233;-68
2024/01/15 14:12:28;;;;;;;8.77;4.57;;;;;;;;;;10365844;28;20213;-66
2024/01/15 14:17:28;;;;;;;8.73;4.93;;;;;;;;;;10368863;28;20734;-66
2024/01/15 14:22:29;;;;;;;16.50;7.93;;;;;;;;;;10368915;28;20189;-68
2024/01/15 14:27:29;;;;;;;15.60;7.67;;;;;;;;;;10368755;28;20562;-66
2024/01/15 14:32:29;;;;;;;8.63;4.43;;;;;;;;;;10364848;28;20221;-66
2024/01/15 14:37:29;;;;;;;12.90;7.20;;;;;;;;;;10368361;28;20296;-67
2024/01/15 14:42:29;;;;;;;24.80;8.90;;;;;;;;;;10367598;28;20244;-66
2024/01/15 14:47:31;;;;;;;11.83;4.97;;;;;;;;;;10368431;28;20271;-66
2024/01/15 14:52:31;;;;;;;12.20;6.10;;;;;;;;;;10364962;28;20593;-65
2024/01/15 14:57:31;;;;;;;9.90;5.60;;;;;;;;;;10367486;28;20206;-66
2024/01/15 15:02:31;;;;;;;13.13;5.37;;;;;;;;;;10368275;28;20835;-67
2024/01/15 15:07:31;;;;;;;12.27;6.67;;;;;;;;;;10364215;28;20282;-67
2024/01/15 15:12:32;;;;;;;13.33;6.17;;;;;;;;;;10368121;28;20270;-66
2024/01/15 15:17:32;;;;;;;14.65;8.13;;;;;;;;;;10368058;28;20699;-66
2024/01/15 15:22:32;;;;;;;14.00;7.00;;;;;;;;;;10368024;28;20211;-66
2024/01/15 15:27:32;;;;;;;12.53;6.73;;;;;;;;;;10364126;28;20601;-67
2024/01/15 15:32:32;;;;;;;23.17;12.67;;;;;;;;;;10367730;28;20502;-66
2024/01/15 15:37:33;;;;;;;11.77;5.97;;;;;;;;;;10367229;28;20211;-69
2024/01/15 15:42:34;;;;;;;13.77;7.70;;;;;;;;;;10367085;28;20192;-66
2024/01/15 15:47:34;;;;;;;11.27;7.50;;;;;;;;;;10363342;28;20295;-66
2024/01/15 15:52:34;;;;;;;15.27;7.23;;;;;;;;;;10366970;28;20216;-67
2024/01/15 15:57:34;;;;;;;10.67;5.80;;;;;;;;;;10373974;28;20326;-65
2024/01/15 16:02:35;;;;;;;15.63;7.80;;;;;;;;;;10374711;28;20609;-66
2024/01/15 16:07:35;;;;;;;16.50;8.10;;;;;;;;;;10370562;28;20286;-66
2024/01/15 16:12:35;;;;;;;15.93;8.60;;;;;;;;;;10373924;28;20229;-66
2024/01/15 16:17:35;;;;;;;14.53;7.47;;;;;;;;;;10374651;28;20288;-67
2024/01/15 16:22:36;;;;;;;16.57;8.00;;;;;;;;;;10374210;28;20205;-65
2024/01/15 16:27:37;;;;;;;13.90;8.50;;;;;;;;;;10369820;28;20635;-68
2024/01/15 16:32:37;;;;;;;15.63;8.60;;;;;;;;;;10373030;28;20699;-66
2024/01/15 16:37:37;;;;;;;14.03;7.73;;;;;;;;;;10372984;28;20292;-65
2024/01/15 16:42:37;;;;;;;16.80;9.03;;;;;;;;;;10369930;28;20228;-68
2024/01/15 16:47:38;;;;;;;17.73;9.60;;;;;;;;;;10373127;28;20467;-68
2024/01/15 16:52:38;;;;;;;16.13;7.60;;;;;;;;;;10369424;28;20240;-67
2024/01/15 16:57:38;;;;;;;11.63;7.93;;;;;;;;;;10372476;28;20544;-67
2024/01/15 17:02:39;;;;;;;12.57;5.70;;;;;;;;;;10364601;28;20440;-66
2024/01/15 17:07:40;;;;;;;12.60;6.80;;;;;;;;;;10371093;28;20236;-66
2024/01/15 17:12:40;;;;;;;13.03;6.73;;;;;;;;;;10371663;28;20218;-67
2024/01/15 17:17:41;;;;;;;13.70;6.77;;;;;;;;;;10371755;28;20213;-66
2024/01/15 17:22:41;;;;;;;20.77;8.37;;;;;;;;;;10367239;28;20189;-68
2024/01/15 17:27:41;;;;;;;16.13;9.33;;;;;;;;;;10371128;28;20213;-66
2024/01/15 17:32:41;;;;;;;15.17;7.97;;;;;;;;;;10370682;28;20240;-67
2024/01/15 17:37:42;;;;;;;17.20;8.03;;;;;;;;;;10370787;28;20650;-67
2024/01/15 17:42:42;;;;;;;14.47;8.67;;;;;;;;;;10367190;28;20212;-66
2024/01/15 17:47:42;;;;;;;18.17;11.67;;;;;;;;;;10370488;28;20213;-66
2024/01/15 17:52:43;;;;;;;17.97;10.60;;;;;;;;;;10370877;28;20213;-66
2024/01/15 17:57:43;;;;;;;13.77;7.13;;;;;;;;;;10369388;28;20212;-66
2024/01/15 18:02:43;;;;;;;19.10;10.83;;;;;;;;;;10367166;28;20202;-67
2024/01/15 18:07:44;;;;;;;15.00;9.23;;;;;;;;;;10369511;28;20225;-66
2024/01/15 18:12:44;;;;;;;15.37;9.70;;;;;;;;;;10369775;28;20233;-67
2024/01/15 18:17:44;;;;;;;11.30;6.80;;;;;;;;;;10361710;28;20214;-66
2024/01/15 18:22:46;;;;;;;12.97;6.40;;;;;;;;;;10369363;28;20551;-66
2024/01/15 18:27:46;;;;;;;16.43;8.80;;;;;;;;;;10369422;28;20236;-67
2024/01/15 18:32:46;;;;;;;18.13;9.00;;;;;;;;;;10369071;28;20227;-66
2024/01/15 18:37:47;;;;;;;22.43;12.70;;;;;;;;;;10364901;28;20451;-66
2024/01/15 18:42:47;;;;;;;17.60;10.33;;;;;;;;;;10368314;28;20965;-66
2024/01/15 18:47:47;;;;;;;63.20;28.70;;;;;;;;;;10368199;28;20510;-67
2024/01/15 18:52:48;;;;;;;15.77;8.23;;;;;;;;;;10367715;28;20240;-67
2024/01/15 18:57:48;;;;;;;15.70;8.33;;;;;;;;;;10364467;28;20194;-67
2024/01/15 19:02:48;;;;;;;15.10;7.53;;;;;;;;;;10367656;28;20883;-66
2024/01/15 19:07:48;;;;;;;11.23;7.53;;;;;;;;;;10367497;28;20295;-67
2024/01/15 19:12:49;;;;;;;10.33;7.10;;;;;;;;;;10367785;28;20211;-68
2024/01/15 19:17:49;;;;;;;18.27;7.67;;;;;;;;;;10363775;28;20702;-67
2024/01/15 19:22:50;;;;;;;16.00;8.67;;;;;;;;;;10367788;28;20193;-69
2024/01/15 19:27:51;;;;;;;13.33;7.83;;;;;;;;;;10367205;28;20217;-68
2024/01/15 19:32:52;;;;;;;11.90;7.27;;;;;;;;;;10373440;28;20691;-68
2024/01/15 19:37:52;;;;;;;15.23;7.57;;;;;;;;;;10373448;28;20233;-67
2024/01/15 19:42:52;;;;;;;13.93;7.83;;;;;;;;;;10375424;28;20272;-66
2024/01/15 19:47:53;;;;;;;8.73;4.70;;;;;;;;;;10375005;28;20217;-67
2024/01/15 19:52:53;;;;;;;8.50;5.77;;;;;;;;;;10371117;28;20597;-67
2024/01/15 19:57:53;;;;;;;5.87;4.50;;;;;;;;;;10374743;28;20205;-68
2024/01/15 20:02:53;;;;;;;6.00;4.73;;;;;;;;;;10374346;28;20732;-68
2024/01/15 20:07:53;;;;;;;9.13;4.67;;;;;;;;;;10374233;28;20245;-66
2024/01/15 20:12:55;;;;;;;7.83;5.17;;;;;;;;;;10370197;28;21076;-65
2024/01/15 20:17:56;;;;;;;7.30;5.00;;;;;;;;;;10373922;28;20209;-66
2024/01/15 20:22:57;;;;;;;10.90;5.40;;;;;;;;;;10373965;28;20193;-66
2024/01/15 20:27:58;;;;;;;10.33;6.13;;;;;;;;;;10373472;28;20257;-67
2024/01/15 20:33:00;;;;;;;12.53;7.27;;;;;;;;;;10369695;28;20210;-66
2024/01/15 20:38:00;;;;;;;10.73;5.87;;;;;;;;;;10372946;28;20209;-67
2024/01/15 20:43:04;;;;;;;8.17;5.13;;;;;;;;;;10371739;28;20197;-66
2024/01/15 20:48:04;;;;;;;11.07;6.77;;;;;;;;;;10372662;28;20224;-68
2024/01/15 20:53:04;;;;;;;8.10;5.50;;;;;;;;;;10368584;28;20704;-68
2024/01/15 20:58:08;;;;;;;8.70;5.90;;;;;;;;;;10372104;28;20208;-66
2024/01/15 21:03:08;;;;;;;12.50;6.87;;;;;;;;;;10371657;28;20186;-66
2024/01/15 21:08:09;;;;;;;5.77;4.30;;;;;;;;;;10367675;28;20246;-68
2024/01/15 21:13:09;;;;;;;5.67;3.53;;;;;;;;;;10367919;28;20295;-68
2024/01/15 21:18:09;;;;;;;6.53;3.63;;;;;;;;;;10371137;28;20292;-68
2024/01/15 21:23:10;;;;;;;5.77;3.30;;;;;;;;;;10371096;28;20193;-69
2024/01/15 21:28:11;;;;;;;2.97;2.63;;;;;;;;;;10367025;28;20697;-68
2024/01/15 21:33:11;;;;;;;6.27;2.60;;;;;;;;;;10370868;28;20296;-68
2024/01/15 21:38:12;;;;;;;4.43;2.93;;;;;;;;;;10370633;28;20212;-68
2024/01/15 21:43:12;;;;;;;3.50;2.80;;;;;;;;;;10370889;28;20805;-68
2024/01/15 21:48:12;;;;;;;3.03;2.73;;;;;;;;;;10366503;28;20213;-68
2024/01/15 21:53:16;;;;;;;3.50;2.53;;;;;;;;;;10369789;28;20216;-66
2024/01/15 21:58:16;;;;;;;3.43;2.80;;;;;;;;;;10370097;28;20212;-67
2024/01/15 22:03:17;;;;;;;5.18;2.90;;;;;;;;;;10369621;28;20196;-67
2024/01/15 22:08:17;;;;;;;8.23;3.97;;;;;;;;;;10365782;28;20327;-68
2024/01/15 22:13:18;;;;;;;7.57;3.13;;;;;;;;;;10369639;28;20695;-68
2024/01/15 22:18:19;;;;;;;4.70;2.30;;;;;;;;;;10369299;28;20197;-65
2024/01/15 22:23:19;;;;;;;4.83;2.30;;;;;;;;;;10369354;28;20561;-67
2024/01/15 22:28:19;;;;;;;8.17;2.93;;;;;;;;;;10367165;28;20216;-66
2024/01/15 22:33:19;;;;;;;11.20;3.10;;;;;;;;;;10370130;28;20232;-65
2024/01/15 22:38:21;;;;;;;4.90;2.63;;;;;;;;;;10368964;28;20209;-69
2024/01/15 22:43:21;;;;;;;4.40;2.60;;;;;;;;;;10365319;28;20433;-68
2024/01/15 22:48:22;;;;;;;3.57;2.40;;;;;;;;;;10368146;28;20216;-68
2024/01/15 22:53:22;;;;;;;4.10;2.60;;;;;;;;;;10368750;28;20625;-68
2024/01/15 22:58:22;;;;;;;5.67;1.97;;;;;;;;;;10367585;28;20316;-67
2024/01/15 23:03:22;;;;;;;6.90;2.90;;;;;;;;;;10363421;28;20185;-67
2024/01/15 23:08:22;;;;;;;8.20;2.60;;;;;;;;;;10367883;28;20237;-68
2024/01/15 23:13:22;;;;;;;5.27;2.77;;;;;;;;;;10367863;28;20585;-67
2024/01/15 23:18:24;;;;;;;5.60;2.20;;;;;;;;;;10367923;28;20236;-68
2024/01/15 23:23:24;;;;;;;6.00;2.50;;;;;;;;;;10363961;28;20252;-67
2024/01/15 23:28:24;;;;;;;7.13;2.03;;;;;;;;;;10368190;28;20216;-68
2024/01/15 23:33:24;;;;;;;4.83;1.80;;;;;;;;;;10367323;28;20221;-68
2024/01/15 23:38:24;;;;;;;6.23;1.73;;;;;;;;;;10366831;28;20213;-67
2024/01/15 23:43:24;;;;;;;4.00;2.10;;;;;;;;;;10363929;28;20201;-68
2024/01/15 23:48:25;;;;;;;4.10;1.83;;;;;;;;;;10367108;28;20240;-68
2024/01/15 23:53:25;;;;;;;4.37;1.87;;;;;;;;;;10366986;28;20873;-68
2024/01/15 23:58:25;;;;;;;5.73;2.37;;;;;;;;;;10366330;28;20596;-66
